^^
B2 Weather Station Historical Data
Daily Summary for January 3, 2017 Units:  Both    English   Metric
« Previous Day
Next Day »
Daily Weekly Monthly Yearly Custom
  High: Low: Average:
Temperature: 40.8 °F /  4.9 °C 21.2 °F /  -6 °C 36.4 °F /  2.4 °C
Dew Point: 40.0 °F /  4.4 °C 16.8 °F /  -8.4 °C 35.1 °F /  1.7 °C
Humidity: 97 % 82 % 95 %
Wind Speed: 24.2 mph /  38.9 km/h - 7.8 mph /  12.6 km/h
Wind Gust: 24.2 mph /  38.9 km/h - -
Wind:- - West
Pressure: 29.96 in /  1014.4 hPa 29.76 in /  1007.7 hPa -
Precipitation: 0.17 in /  4.32 mm    
Historical Graphs
 
 
Tabular Data for January 3, 2017
Time Temperature Dew Point Pressure Wind Wind Speed Wind Gust Humidity Rainfall Rate (Hourly) solar Conditions
00:04 38.7 °F /  3.7 °C 37.9 °F /  3.3 °C 29.87 in /  1011.4 hPa Calm     97 % 0.00 in /  0 mm 0.0 W/m2 RA
00:09 38.8 °F /  3.8 °C 38.0 °F /  3.3 °C 29.86 in /  1011.1 hPa North 3.5 mph /  5.6 km/h 3.5 mph /  5.6 km/h 97 % 0.00 in /  0 mm 0.0 W/m2 RA
00:14 38.7 °F /  3.7 °C 37.9 °F /  3.3 °C 29.86 in /  1011.1 hPa Calm     97 % 0.00 in /  0 mm 0.0 W/m2 OVC
00:19 38.8 °F /  3.8 °C 38.0 °F /  3.3 °C 29.86 in /  1011.1 hPa Calm     97 % 0.00 in /  0 mm 0.0 W/m2 OVC
00:24 38.8 °F /  3.8 °C 38.0 °F /  3.3 °C 29.86 in /  1011.1 hPa Calm     97 % 0.00 in /  0 mm 0.0 W/m2 OVC
00:29 38.8 °F /  3.8 °C 38.0 °F /  3.3 °C 29.85 in /  1010.7 hPa Calm     97 % 0.00 in /  0 mm 0.0 W/m2 OVC
00:34 38.6 °F /  3.7 °C 37.8 °F /  3.2 °C 29.85 in /  1010.7 hPa Calm     97 % 0.00 in /  0 mm 0.0 W/m2 OVC
00:39 38.7 °F /  3.7 °C 37.9 °F /  3.3 °C 29.85 in /  1010.7 hPa Calm     97 % 0.00 in /  0 mm 0.0 W/m2 OVC
00:44 38.7 °F /  3.7 °C 37.9 °F /  3.3 °C 29.85 in /  1010.7 hPa Calm     97 % 0.00 in /  0 mm 0.0 W/m2 OVC
00:49 38.7 °F /  3.7 °C 37.9 °F /  3.3 °C 29.84 in /  1010.4 hPa Calm     97 % 0.00 in /  0 mm 0.0 W/m2 OVC
00:54 38.7 °F /  3.7 °C 37.9 °F /  3.3 °C 29.84 in /  1010.4 hPa Calm     97 % 0.00 in /  0 mm 0.0 W/m2 OVC
00:59 38.7 °F /  3.7 °C 37.9 °F /  3.3 °C 29.84 in /  1010.4 hPa Calm     97 % 0.00 in /  0 mm 0.0 W/m2 OVC
01:04 38.8 °F /  3.8 °C 37.8 °F /  3.2 °C 29.84 in /  1010.4 hPa Calm     96 % 0.00 in /  0 mm 0.0 W/m2 OVC
01:09 38.8 °F /  3.8 °C 37.8 °F /  3.2 °C 29.84 in /  1010.4 hPa Calm     96 % 0.00 in /  0 mm 0.0 W/m2 OVC
01:14 38.8 °F /  3.8 °C 37.8 °F /  3.2 °C 29.84 in /  1010.4 hPa Calm     96 % 0.00 in /  0 mm 0.0 W/m2 OVC
01:19 38.8 °F /  3.8 °C 37.8 °F /  3.2 °C 29.84 in /  1010.4 hPa North 3.5 mph /  5.6 km/h 3.5 mph /  5.6 km/h 96 % 0.00 in /  0 mm 0.0 W/m2 OVC
01:24 38.8 °F /  3.8 °C 37.8 °F /  3.2 °C 29.84 in /  1010.4 hPa Calm     96 % 0.00 in /  0 mm 0.0 W/m2 OVC
01:29 38.8 °F /  3.8 °C 37.8 °F /  3.2 °C 29.84 in /  1010.4 hPa Calm     96 % 0.00 in /  0 mm 0.0 W/m2 OVC
01:34 38.9 °F /  3.8 °C 37.9 °F /  3.3 °C 29.84 in /  1010.4 hPa Calm     96 % 0.00 in /  0 mm 0.0 W/m2 OVC
01:39 39.0 °F /  3.9 °C 38.0 °F /  3.3 °C 29.84 in /  1010.4 hPa Calm     96 % 0.00 in /  0 mm 0.0 W/m2 OVC
01:44 39.1 °F /  3.9 °C 38.1 °F /  3.4 °C 29.84 in /  1010.4 hPa Calm     96 % 0.00 in /  0 mm 0.0 W/m2 OVC
01:49 39.2 °F /  4 °C 38.2 °F /  3.4 °C 29.84 in /  1010.4 hPa Calm     96 % 0.00 in /  0 mm 0.0 W/m2 OVC
01:54 39.1 °F /  3.9 °C 38.1 °F /  3.4 °C 29.84 in /  1010.4 hPa Calm     96 % 0.00 in /  0 mm 0.0 W/m2 OVC
01:59 39.0 °F /  3.9 °C 38.0 °F /  3.3 °C 29.84 in /  1010.4 hPa Calm     96 % 0.00 in /  0 mm 0.0 W/m2 OVC
02:04 38.9 °F /  3.8 °C 37.9 °F /  3.3 °C 29.84 in /  1010.4 hPa Calm     96 % 0.00 in /  0 mm 0.0 W/m2 OVC
02:09 38.8 °F /  3.8 °C 37.8 °F /  3.2 °C 29.84 in /  1010.4 hPa Calm     96 % 0.00 in /  0 mm 0.0 W/m2 OVC
02:10 38.8 °F /  3.8 °C 37.8 °F /  3.2 °C 29.84 in /  1010.4 hPa Calm     96 % 0.00 in /  0 mm 0.0 W/m2 OVC
02:15 38.7 °F /  3.7 °C 37.7 °F /  3.2 °C 29.84 in /  1010.4 hPa Calm     96 % 0.00 in /  0 mm 0.0 W/m2 OVC
02:20 38.7 °F /  3.7 °C 37.7 °F /  3.2 °C 29.84 in /  1010.4 hPa Calm     96 % 0.00 in /  0 mm 0.0 W/m2 OVC
02:25 38.6 °F /  3.7 °C 37.6 °F /  3.1 °C 29.83 in /  1010 hPa Calm     96 % 0.00 in /  0 mm 0.0 W/m2 OVC
02:30 38.4 °F /  3.6 °C 37.4 °F /  3 °C 29.83 in /  1010 hPa Calm     96 % 0.00 in /  0 mm 0.0 W/m2 OVC
02:35 38.4 °F /  3.6 °C 37.4 °F /  3 °C 29.83 in /  1010 hPa Calm     96 % 0.00 in /  0 mm 0.0 W/m2 OVC
02:40 38.4 °F /  3.6 °C 37.4 °F /  3 °C 29.83 in /  1010 hPa Calm     96 % 0.00 in /  0 mm 0.0 W/m2 OVC
02:45 38.3 °F /  3.5 °C 37.3 °F /  2.9 °C 29.83 in /  1010 hPa Calm     96 % 0.00 in /  0 mm 0.0 W/m2 OVC
02:50 38.3 °F /  3.5 °C 37.3 °F /  2.9 °C 29.83 in /  1010 hPa Calm     96 % 0.00 in /  0 mm 0.0 W/m2 OVC
02:55 38.3 °F /  3.5 °C 37.3 °F /  2.9 °C 29.83 in /  1010 hPa Calm     96 % 0.00 in /  0 mm 0.0 W/m2 OVC
03:00 38.3 °F /  3.5 °C 37.3 °F /  2.9 °C 29.82 in /  1009.7 hPa Calm     96 % 0.00 in /  0 mm 0.0 W/m2 OVC
03:05 38.3 °F /  3.5 °C 37.3 °F /  2.9 °C 29.82 in /  1009.7 hPa Calm     96 % 0.00 in /  0 mm 0.0 W/m2 OVC
03:10 38.3 °F /  3.5 °C 37.3 °F /  2.9 °C 29.82 in /  1009.7 hPa Calm     96 % 0.00 in /  0 mm 0.0 W/m2 OVC
03:15 38.4 °F /  3.6 °C 37.4 °F /  3 °C 29.82 in /  1009.7 hPa Calm     96 % 0.00 in /  0 mm 0.0 W/m2 OVC
03:20 38.4 °F /  3.6 °C 37.4 °F /  3 °C 29.82 in /  1009.7 hPa Calm     96 % 0.00 in /  0 mm 0.0 W/m2 OVC
03:25 38.5 °F /  3.6 °C 37.5 °F /  3.1 °C 29.81 in /  1009.4 hPa Calm     96 % 0.00 in /  0 mm 0.0 W/m2 OVC
03:30 38.5 °F /  3.6 °C 37.5 °F /  3.1 °C 29.82 in /  1009.7 hPa Calm     96 % 0.00 in /  0 mm 0.0 W/m2 OVC
03:35 38.5 °F /  3.6 °C 37.5 °F /  3.1 °C 29.81 in /  1009.4 hPa Calm     96 % 0.00 in /  0 mm 0.0 W/m2 OVC
03:40 38.4 °F /  3.6 °C 37.4 °F /  3 °C 29.81 in /  1009.4 hPa Calm     96 % 0.00 in /  0 mm 0.0 W/m2 OVC
03:45 38.3 °F /  3.5 °C 37.3 °F /  2.9 °C 29.81 in /  1009.4 hPa Calm     96 % 0.00 in /  0 mm 0.0 W/m2 OVC
03:50 38.3 °F /  3.5 °C 37.3 °F /  2.9 °C 29.81 in /  1009.4 hPa Calm     96 % 0.00 in /  0 mm 0.0 W/m2 OVC
03:55 38.4 °F /  3.6 °C 37.4 °F /  3 °C 29.81 in /  1009.4 hPa Calm     96 % 0.00 in /  0 mm 0.0 W/m2 OVC
04:00 38.4 °F /  3.6 °C 37.4 °F /  3 °C 29.81 in /  1009.4 hPa Calm     96 % 0.00 in /  0 mm 0.0 W/m2 OVC
04:05 38.5 °F /  3.6 °C 37.5 °F /  3.1 °C 29.81 in /  1009.4 hPa Calm     96 % 0.00 in /  0 mm 0.0 W/m2 OVC
04:10 38.5 °F /  3.6 °C 37.5 °F /  3.1 °C 29.80 in /  1009 hPa Calm     96 % 0.00 in /  0 mm 0.0 W/m2 OVC
04:15 38.6 °F /  3.7 °C 37.6 °F /  3.1 °C 29.80 in /  1009 hPa Calm     96 % 0.00 in /  0 mm 0.0 W/m2 OVC
04:20 38.7 °F /  3.7 °C 37.9 °F /  3.3 °C 29.80 in /  1009 hPa Calm     97 % 0.00 in /  0 mm 0.0 W/m2 OVC
04:25 38.7 °F /  3.7 °C 37.9 °F /  3.3 °C 29.80 in /  1009 hPa Calm     97 % 0.00 in /  0 mm 0.0 W/m2 OVC
04:30 38.7 °F /  3.7 °C 37.7 °F /  3.2 °C 29.79 in /  1008.7 hPa Calm     96 % 0.00 in /  0 mm 0.0 W/m2 OVC
04:35 38.6 °F /  3.7 °C 37.6 °F /  3.1 °C 29.79 in /  1008.7 hPa Calm     96 % 0.00 in /  0 mm 0.0 W/m2 OVC
04:40 38.6 °F /  3.7 °C 37.6 °F /  3.1 °C 29.79 in /  1008.7 hPa Calm     96 % 0.00 in /  0 mm 0.0 W/m2 OVC
04:45 38.5 °F /  3.6 °C 37.5 °F /  3.1 °C 29.79 in /  1008.7 hPa Calm     96 % 0.00 in /  0 mm 0.0 W/m2 OVC
04:50 38.4 °F /  3.6 °C 37.4 °F /  3 °C 29.79 in /  1008.7 hPa Calm     96 % 0.00 in /  0 mm 0.0 W/m2 OVC
04:55 38.5 °F /  3.6 °C 37.5 °F /  3.1 °C 29.79 in /  1008.7 hPa Calm     96 % 0.00 in /  0 mm 0.0 W/m2 OVC
05:00 38.6 °F /  3.7 °C 37.6 °F /  3.1 °C 29.79 in /  1008.7 hPa Calm     96 % 0.00 in /  0 mm 0.0 W/m2 OVC
05:05 38.6 °F /  3.7 °C 37.6 °F /  3.1 °C 29.78 in /  1008.4 hPa Calm     96 % 0.00 in /  0 mm 0.0 W/m2 OVC
05:10 38.6 °F /  3.7 °C 37.6 °F /  3.1 °C 29.78 in /  1008.4 hPa North 4.6 mph /  7.4 km/h 4.6 mph /  7.4 km/h 96 % 0.00 in /  0 mm 0.0 W/m2 OVC
05:15 38.6 °F /  3.7 °C 37.6 °F /  3.1 °C 29.78 in /  1008.4 hPa North 3.5 mph /  5.6 km/h 3.5 mph /  5.6 km/h 96 % 0.00 in /  0 mm 0.0 W/m2 OVC
05:20 38.5 °F /  3.6 °C 37.7 °F /  3.2 °C 29.78 in /  1008.4 hPa North 3.5 mph /  5.6 km/h 3.5 mph /  5.6 km/h 97 % 0.00 in /  0 mm 0.0 W/m2 OVC
05:25 38.4 °F /  3.6 °C 37.6 °F /  3.1 °C 29.78 in /  1008.4 hPa North 3.5 mph /  5.6 km/h 3.5 mph /  5.6 km/h 97 % 0.00 in /  0 mm 0.0 W/m2 OVC
05:30 38.6 °F /  3.7 °C 37.8 °F /  3.2 °C 29.78 in /  1008.4 hPa Calm     97 % 0.00 in /  0 mm 0.0 W/m2 OVC
05:35 38.7 °F /  3.7 °C 37.9 °F /  3.3 °C 29.78 in /  1008.4 hPa Calm     97 % 0.00 in /  0 mm 0.0 W/m2 OVC
05:40 38.7 °F /  3.7 °C 37.9 °F /  3.3 °C 29.78 in /  1008.4 hPa Calm     97 % 0.00 in /  0 mm 0.0 W/m2 OVC
05:45 38.7 °F /  3.7 °C 37.9 °F /  3.3 °C 29.78 in /  1008.4 hPa Calm     97 % 0.00 in /  0 mm 0.0 W/m2 OVC
05:50 38.7 °F /  3.7 °C 37.9 °F /  3.3 °C 29.78 in /  1008.4 hPa Calm     97 % 0.00 in /  0 mm 0.0 W/m2 OVC
05:55 38.7 °F /  3.7 °C 37.9 °F /  3.3 °C 29.78 in /  1008.4 hPa North 4.6 mph /  7.4 km/h 4.6 mph /  7.4 km/h 97 % 0.00 in /  0 mm 0.0 W/m2 OVC
06:00 38.7 °F /  3.7 °C 37.9 °F /  3.3 °C 29.78 in /  1008.4 hPa North 5.8 mph /  9.3 km/h 5.8 mph /  9.3 km/h 97 % 0.00 in /  0 mm 0.0 W/m2 OVC
06:05 38.7 °F /  3.7 °C 37.9 °F /  3.3 °C 29.78 in /  1008.4 hPa North 5.8 mph /  9.3 km/h 5.8 mph /  9.3 km/h 97 % 0.00 in /  0 mm 0.0 W/m2 OVC
06:10 38.8 °F /  3.8 °C 38.0 °F /  3.3 °C 29.78 in /  1008.4 hPa North 5.8 mph /  9.3 km/h 5.8 mph /  9.3 km/h 97 % 0.00 in /  0 mm 0.0 W/m2 OVC
06:15 38.8 °F /  3.8 °C 38.0 °F /  3.3 °C 29.78 in /  1008.4 hPa North 4.6 mph /  7.4 km/h 4.6 mph /  7.4 km/h 97 % 0.00 in /  0 mm 0.0 W/m2 OVC
06:20 38.8 °F /  3.8 °C 38.0 °F /  3.3 °C 29.79 in /  1008.7 hPa North 3.5 mph /  5.6 km/h 3.5 mph /  5.6 km/h 97 % 0.00 in /  0 mm 0.0 W/m2 OVC
06:25 38.8 °F /  3.8 °C 38.0 °F /  3.3 °C 29.78 in /  1008.4 hPa North 3.5 mph /  5.6 km/h 3.5 mph /  5.6 km/h 97 % 0.00 in /  0 mm 0.0 W/m2 OVC
06:30 38.8 °F /  3.8 °C 38.0 °F /  3.3 °C 29.78 in /  1008.4 hPa North 3.5 mph /  5.6 km/h 3.5 mph /  5.6 km/h 97 % 0.00 in /  0 mm 0.0 W/m2 OVC
06:35 38.8 °F /  3.8 °C 38.0 °F /  3.3 °C 29.79 in /  1008.7 hPa North 3.5 mph /  5.6 km/h 3.5 mph /  5.6 km/h 97 % 0.00 in /  0 mm 0.0 W/m2 OVC
06:40 38.9 °F /  3.8 °C 38.1 °F /  3.4 °C 29.79 in /  1008.7 hPa Calm     97 % 0.00 in /  0 mm 0.0 W/m2 OVC
06:45 38.9 °F /  3.8 °C 38.1 °F /  3.4 °C 29.79 in /  1008.7 hPa Calm     97 % 0.00 in /  0 mm 0.0 W/m2 OVC
06:50 38.9 °F /  3.8 °C 38.1 °F /  3.4 °C 29.79 in /  1008.7 hPa Calm     97 % 0.00 in /  0 mm 0.0 W/m2 OVC
06:55 38.8 °F /  3.8 °C 38.0 °F /  3.3 °C 29.79 in /  1008.7 hPa North 4.0 mph /  6.4 km/h 4.0 mph /  6.4 km/h 97 % 0.00 in /  0 mm 0.0 W/m2 OVC
07:00 38.8 °F /  3.8 °C 38.0 °F /  3.3 °C 29.78 in /  1008.4 hPa North 4.6 mph /  7.4 km/h 4.6 mph /  7.4 km/h 97 % 0.00 in /  0 mm 0.0 W/m2 OVC
07:05 38.8 °F /  3.8 °C 38.0 °F /  3.3 °C 29.78 in /  1008.4 hPa North 5.8 mph /  9.3 km/h 5.8 mph /  9.3 km/h 97 % 0.00 in /  0 mm 0.0 W/m2 OVC
07:10 38.8 °F /  3.8 °C 38.0 °F /  3.3 °C 29.78 in /  1008.4 hPa North 4.6 mph /  7.4 km/h 4.6 mph /  7.4 km/h 97 % 0.00 in /  0 mm 0.0 W/m2 OVC
07:15 38.8 °F /  3.8 °C 38.0 °F /  3.3 °C 29.79 in /  1008.7 hPa North 3.5 mph /  5.6 km/h 3.5 mph /  5.6 km/h 97 % 0.00 in /  0 mm 0.0 W/m2 OVC
07:20 38.8 °F /  3.8 °C 38.0 °F /  3.3 °C 29.79 in /  1008.7 hPa North 3.5 mph /  5.6 km/h 3.5 mph /  5.6 km/h 97 % 0.00 in /  0 mm 0.0 W/m2 OVC
07:25 38.8 °F /  3.8 °C 38.0 °F /  3.3 °C 29.79 in /  1008.7 hPa North 3.5 mph /  5.6 km/h 3.5 mph /  5.6 km/h 97 % 0.00 in /  0 mm 0.0 W/m2 OVC
07:30 38.8 °F /  3.8 °C 38.0 °F /  3.3 °C 29.79 in /  1008.7 hPa North 3.5 mph /  5.6 km/h 3.5 mph /  5.6 km/h 97 % 0.00 in /  0 mm 0.0 W/m2 OVC
07:35 38.9 °F /  3.8 °C 38.1 °F /  3.4 °C 29.79 in /  1008.7 hPa North 3.5 mph /  5.6 km/h 3.5 mph /  5.6 km/h 97 % 0.00 in /  0 mm 0.0 W/m2 OVC
07:40 38.9 °F /  3.8 °C 38.1 °F /  3.4 °C 29.79 in /  1008.7 hPa Calm     97 % 0.00 in /  0 mm 0.0 W/m2 OVC
07:45 39.0 °F /  3.9 °C 38.2 °F /  3.4 °C 29.80 in /  1009 hPa Calm     97 % 0.00 in /  0 mm 0.0 W/m2 OVC
07:50 39.1 °F /  3.9 °C 38.3 °F /  3.5 °C 29.79 in /  1008.7 hPa Calm     97 % 0.00 in /  0 mm 0.0 W/m2 OVC
07:55 39.2 °F /  4 °C 38.4 °F /  3.6 °C 29.79 in /  1008.7 hPa Calm     97 % 0.00 in /  0 mm 0.0 W/m2 OVC
08:00 39.3 °F /  4.1 °C 38.5 °F /  3.6 °C 29.78 in /  1008.4 hPa Calm     97 % 0.00 in /  0 mm 5.0 W/m2 OVC
08:05 39.4 °F /  4.1 °C 38.6 °F /  3.7 °C 29.78 in /  1008.4 hPa Calm     97 % 0.00 in /  0 mm 9.0 W/m2 OVC
08:10 39.4 °F /  4.1 °C 38.6 °F /  3.7 °C 29.78 in /  1008.4 hPa Calm     97 % 0.00 in /  0 mm 9.0 W/m2 OVC
08:15 39.4 °F /  4.1 °C 38.6 °F /  3.7 °C 29.78 in /  1008.4 hPa Calm     97 % 0.00 in /  0 mm 9.0 W/m2 OVC
08:20 39.5 °F /  4.2 °C 38.7 °F /  3.7 °C 29.78 in /  1008.4 hPa Calm     97 % 0.00 in /  0 mm 11.0 W/m2 OVC
08:25 39.5 °F /  4.2 °C 38.7 °F /  3.7 °C 29.78 in /  1008.4 hPa Calm     97 % 0.00 in /  0 mm 14.0 W/m2 OVC
08:30 39.5 °F /  4.2 °C 38.7 °F /  3.7 °C 29.78 in /  1008.4 hPa Calm     97 % 0.00 in /  0 mm 14.0 W/m2 OVC
08:35 39.6 °F /  4.2 °C 38.8 °F /  3.8 °C 29.78 in /  1008.4 hPa Calm     97 % 0.00 in /  0 mm 26.0 W/m2 -DZ
08:40 39.7 °F /  4.3 °C 38.9 °F /  3.8 °C 29.79 in /  1008.7 hPa Calm     97 % 0.00 in /  0 mm 25.0 W/m2 -DZ
08:45 39.7 °F /  4.3 °C 38.9 °F /  3.8 °C 29.79 in /  1008.7 hPa Calm     97 % 0.00 in /  0 mm 26.0 W/m2 -DZ
08:50 39.6 °F /  4.2 °C 38.8 °F /  3.8 °C 29.79 in /  1008.7 hPa Calm     97 % 0.00 in /  0 mm 23.0 W/m2 OVC
08:55 39.6 °F /  4.2 °C 38.8 °F /  3.8 °C 29.80 in /  1009 hPa Calm     97 % 0.00 in /  0 mm 14.0 W/m2 OVC
09:00 39.6 °F /  4.2 °C 38.8 °F /  3.8 °C 29.80 in /  1009 hPa Calm     97 % 0.00 in /  0 mm 18.0 W/m2 OVC
09:05 39.7 °F /  4.3 °C 38.9 °F /  3.8 °C 29.79 in /  1008.7 hPa Calm     97 % 0.00 in /  0 mm 35.0 W/m2 OVC
09:06 39.8 °F /  4.3 °C 39.0 °F /  3.9 °C 29.79 in /  1008.7 hPa Calm     97 % 0.00 in /  0 mm 37.0 W/m2 OVC
09:11 40.0 °F /  4.4 °C 39.2 °F /  4 °C 29.79 in /  1008.7 hPa Calm     97 % 0.00 in /  0 mm 32.0 W/m2 OVC
09:16 40.2 °F /  4.6 °C 39.4 °F /  4.1 °C 29.79 in /  1008.7 hPa Calm     97 % 0.00 in /  0 mm 30.0 W/m2 OVC
09:21 40.4 °F /  4.7 °C 39.6 °F /  4.2 °C 29.79 in /  1008.7 hPa Calm     97 % 0.00 in /  0 mm 30.0 W/m2 -DZ
09:26 40.4 °F /  4.7 °C 39.6 °F /  4.2 °C 29.80 in /  1009 hPa Calm     97 % 0.00 in /  0 mm 28.0 W/m2 -DZ
09:31 40.4 °F /  4.7 °C 39.6 °F /  4.2 °C 29.80 in /  1009 hPa Calm     97 % 0.00 in /  0 mm 28.0 W/m2 -DZ
09:36 40.3 °F /  4.6 °C 39.5 °F /  4.2 °C 29.79 in /  1008.7 hPa Calm     97 % 0.00 in /  0 mm 30.0 W/m2 -DZ
09:41 40.3 °F /  4.6 °C 39.5 °F /  4.2 °C 29.79 in /  1008.7 hPa Calm     97 % 0.00 in /  0 mm 37.0 W/m2 -DZ
09:46 40.5 °F /  4.7 °C 39.7 °F /  4.3 °C 29.79 in /  1008.7 hPa Calm     97 % 0.00 in /  0 mm 39.0 W/m2 -DZ
09:51 40.6 °F /  4.8 °C 39.8 °F /  4.3 °C 29.79 in /  1008.7 hPa Calm     97 % 0.00 in /  0 mm 37.0 W/m2 -DZ
09:56 40.6 °F /  4.8 °C 39.8 °F /  4.3 °C 29.80 in /  1009 hPa Calm     97 % 0.00 in /  0 mm 30.0 W/m2 -DZ
10:01 40.6 °F /  4.8 °C 39.8 °F /  4.3 °C 29.80 in /  1009 hPa Calm     97 % 0.00 in /  0 mm 26.0 W/m2 OVC
10:06 40.7 °F /  4.8 °C 39.9 °F /  4.4 °C 29.80 in /  1009 hPa Calm     97 % 0.00 in /  0 mm 28.0 W/m2 OVC
10:11 40.7 °F /  4.8 °C 39.9 °F /  4.4 °C 29.80 in /  1009 hPa Calm     97 % 0.00 in /  0 mm 26.0 W/m2 OVC
10:16 40.7 °F /  4.8 °C 39.9 °F /  4.4 °C 29.79 in /  1008.7 hPa Calm     97 % 0.00 in /  0 mm 32.0 W/m2 OVC
10:21 40.8 °F /  4.9 °C 40.0 °F /  4.4 °C 29.79 in /  1008.7 hPa Calm     97 % 0.00 in /  0 mm 32.0 W/m2 OVC
10:26 40.8 °F /  4.9 °C 40.0 °F /  4.4 °C 29.79 in /  1008.7 hPa Calm     97 % 0.00 in /  0 mm 42.0 W/m2 OVC
10:31 40.8 °F /  4.9 °C 40.0 °F /  4.4 °C 29.79 in /  1008.7 hPa Calm     97 % 0.00 in /  0 mm 39.0 W/m2 OVC
10:36 40.8 °F /  4.9 °C 40.0 °F /  4.4 °C 29.79 in /  1008.7 hPa North 3.5 mph /  5.6 km/h 3.5 mph /  5.6 km/h 97 % 0.00 in /  0 mm 30.0 W/m2 OVC
10:41 40.8 °F /  4.9 °C 40.0 °F /  4.4 °C 29.79 in /  1008.7 hPa Calm     97 % 0.00 in /  0 mm 28.0 W/m2 OVC
10:46 40.8 °F /  4.9 °C 40.0 °F /  4.4 °C 29.78 in /  1008.4 hPa Calm     97 % 0.00 in /  0 mm 28.0 W/m2 OVC
10:51 40.7 °F /  4.8 °C 39.9 °F /  4.4 °C 29.78 in /  1008.4 hPa Calm     97 % 0.00 in /  0 mm 30.0 W/m2 OVC
10:56 40.7 °F /  4.8 °C 39.9 °F /  4.4 °C 29.78 in /  1008.4 hPa North 6.0 mph /  9.7 km/h 6.0 mph /  9.7 km/h 97 % 0.00 in /  0 mm 21.0 W/m2 OVC
11:01 40.6 °F /  4.8 °C 39.8 °F /  4.3 °C 29.79 in /  1008.7 hPa North 5.8 mph /  9.3 km/h 5.8 mph /  9.3 km/h 97 % 0.00 in /  0 mm 14.0 W/m2 OVC
11:06 40.5 °F /  4.7 °C 39.7 °F /  4.3 °C 29.79 in /  1008.7 hPa NNW 5.8 mph /  9.3 km/h 5.8 mph /  9.3 km/h 97 % 0.00 in /  0 mm 9.0 W/m2 OVC
11:11 40.5 °F /  4.7 °C 39.7 °F /  4.3 °C 29.80 in /  1009 hPa NW 9.2 mph /  14.8 km/h 9.2 mph /  14.8 km/h 97 % 0.00 in /  0 mm 7.0 W/m2 OVC
11:16 40.4 °F /  4.7 °C 39.6 °F /  4.2 °C 29.79 in /  1008.7 hPa NW 10.4 mph /  16.7 km/h 10.4 mph /  16.7 km/h 97 % 0.00 in /  0 mm 11.0 W/m2 OVC
11:21 40.4 °F /  4.7 °C 39.6 °F /  4.2 °C 29.79 in /  1008.7 hPa NW 6.9 mph /  11.1 km/h 6.9 mph /  11.1 km/h 97 % 0.02 in /  0.51 mm 18.0 W/m2 RA
11:26 40.3 °F /  4.6 °C 39.5 °F /  4.2 °C 29.80 in /  1009 hPa WNW 7.0 mph /  11.3 km/h 7.0 mph /  11.3 km/h 97 % 0.03 in /  0.76 mm 11.0 W/m2 RA
11:31 40.3 °F /  4.6 °C 39.5 °F /  4.2 °C 29.79 in /  1008.7 hPa WNW 6.9 mph /  11.1 km/h 6.9 mph /  11.1 km/h 97 % 0.04 in /  1.02 mm 19.0 W/m2 RA
11:36 40.4 °F /  4.7 °C 39.6 °F /  4.2 °C 29.78 in /  1008.4 hPa WNW 7.0 mph /  11.3 km/h 7.0 mph /  11.3 km/h 97 % 0.04 in /  1.02 mm 26.0 W/m2 RA
11:41 40.4 °F /  4.7 °C 39.6 °F /  4.2 °C 29.78 in /  1008.4 hPa WNW 8.1 mph /  13 km/h 8.1 mph /  13 km/h 97 % 0.05 in /  1.27 mm 28.0 W/m2 RA
11:46 40.5 °F /  4.7 °C 39.7 °F /  4.3 °C 29.78 in /  1008.4 hPa WNW 5.8 mph /  9.3 km/h 5.8 mph /  9.3 km/h 97 % 0.05 in /  1.27 mm 26.0 W/m2 RA
11:51 40.5 °F /  4.7 °C 39.7 °F /  4.3 °C 29.78 in /  1008.4 hPa WNW 8.1 mph /  13 km/h 8.1 mph /  13 km/h 97 % 0.06 in /  1.52 mm 30.0 W/m2 RA
11:56 40.4 °F /  4.7 °C 39.6 °F /  4.2 °C 29.77 in /  1008 hPa NW 6.9 mph /  11.1 km/h 6.9 mph /  11.1 km/h 97 % 0.06 in /  1.52 mm 44.0 W/m2 RA
12:01 40.3 °F /  4.6 °C 39.5 °F /  4.2 °C 29.77 in /  1008 hPa NW 9.2 mph /  14.8 km/h 9.2 mph /  14.8 km/h 97 % 0.06 in /  1.52 mm 33.0 W/m2 OVC
12:06 40.2 °F /  4.6 °C 39.4 °F /  4.1 °C 29.77 in /  1008 hPa NW 9.2 mph /  14.8 km/h 9.2 mph /  14.8 km/h 97 % 0.06 in /  1.52 mm 28.0 W/m2 OVC
12:11 40.1 °F /  4.5 °C 39.3 °F /  4.1 °C 29.77 in /  1008 hPa NW 8.1 mph /  13 km/h 8.1 mph /  13 km/h 97 % 0.06 in /  1.52 mm 30.0 W/m2 OVC
12:16 40.0 °F /  4.4 °C 39.2 °F /  4 °C 29.77 in /  1008 hPa NW 4.6 mph /  7.4 km/h 4.6 mph /  7.4 km/h 97 % 0.07 in /  1.78 mm 28.0 W/m2 RA
12:21 39.9 °F /  4.4 °C 39.1 °F /  3.9 °C 29.77 in /  1008 hPa NW 11.5 mph /  18.5 km/h 11.5 mph /  18.5 km/h 97 % 0.05 in /  1.27 mm 23.0 W/m2 RA
12:26 39.8 °F /  4.3 °C 39.0 °F /  3.9 °C 29.76 in /  1007.7 hPa NW 11.5 mph /  18.5 km/h 11.5 mph /  18.5 km/h 97 % 0.05 in /  1.27 mm 21.0 W/m2 RA
12:31 39.7 °F /  4.3 °C 38.9 °F /  3.8 °C 29.77 in /  1008 hPa NW 11.5 mph /  18.5 km/h 11.5 mph /  18.5 km/h 97 % 0.04 in /  1.02 mm 23.0 W/m2 RA
12:36 39.7 °F /  4.3 °C 38.9 °F /  3.8 °C 29.76 in /  1007.7 hPa NW 11.5 mph /  18.5 km/h 11.5 mph /  18.5 km/h 97 % 0.04 in /  1.02 mm 30.0 W/m2 OVC
12:41 39.6 °F /  4.2 °C 38.8 °F /  3.8 °C 29.76 in /  1007.7 hPa NW 12.7 mph /  20.4 km/h 12.7 mph /  20.4 km/h 97 % 0.03 in /  0.76 mm 39.0 W/m2 OVC
12:46 39.6 °F /  4.2 °C 38.8 °F /  3.8 °C 29.76 in /  1007.7 hPa NW 14.0 mph /  22.5 km/h 14.0 mph /  22.5 km/h 97 % 0.03 in /  0.76 mm 46.0 W/m2 OVC
12:51 39.6 °F /  4.2 °C 38.8 °F /  3.8 °C 29.76 in /  1007.7 hPa NNW 11.0 mph /  17.7 km/h 11.0 mph /  17.7 km/h 97 % 0.02 in /  0.51 mm 81.0 W/m2 OVC
12:56 39.7 °F /  4.3 °C 38.9 °F /  3.8 °C 29.76 in /  1007.7 hPa NW 12.7 mph /  20.4 km/h 12.7 mph /  20.4 km/h 97 % 0.03 in /  0.76 mm 74.0 W/m2 RA
13:01 39.6 °F /  4.2 °C 38.8 °F /  3.8 °C 29.76 in /  1007.7 hPa NW 12.7 mph /  20.4 km/h 12.7 mph /  20.4 km/h 97 % 0.03 in /  0.76 mm 70.0 W/m2 -RA
13:06 39.5 °F /  4.2 °C 38.7 °F /  3.7 °C 29.76 in /  1007.7 hPa NW 11.5 mph /  18.5 km/h 11.5 mph /  18.5 km/h 97 % 0.03 in /  0.76 mm 47.0 W/m2 -RA
13:11 39.4 °F /  4.1 °C 38.6 °F /  3.7 °C 29.77 in /  1008 hPa NW 12.7 mph /  20.4 km/h 12.7 mph /  20.4 km/h 97 % 0.03 in /  0.76 mm 46.0 W/m2 -RA
13:16 39.3 °F /  4.1 °C 38.5 °F /  3.6 °C 29.77 in /  1008 hPa NW 11.5 mph /  18.5 km/h 11.5 mph /  18.5 km/h 97 % 0.02 in /  0.51 mm 37.0 W/m2 -RA
13:21 39.2 °F /  4 °C 38.4 °F /  3.6 °C 29.77 in /  1008 hPa WNW 11.5 mph /  18.5 km/h 11.5 mph /  18.5 km/h 97 % 0.02 in /  0.51 mm 28.0 W/m2 -RA
13:26 39.1 °F /  3.9 °C 38.3 °F /  3.5 °C 29.77 in /  1008 hPa NW 13.8 mph /  22.2 km/h 13.8 mph /  22.2 km/h 97 % 0.01 in /  0.25 mm 26.0 W/m2 -RA
13:31 39.1 °F /  3.9 °C 38.3 °F /  3.5 °C 29.77 in /  1008 hPa NNW 11.5 mph /  18.5 km/h 11.5 mph /  18.5 km/h 97 % 0.01 in /  0.25 mm 21.0 W/m2 -RA
13:36 38.9 °F /  3.8 °C 38.1 °F /  3.4 °C 29.76 in /  1007.7 hPa NW 12.0 mph /  19.3 km/h 12.0 mph /  19.3 km/h 97 % 0.02 in /  0.51 mm 19.0 W/m2 -DZ
13:41 38.8 °F /  3.8 °C 38.0 °F /  3.3 °C 29.76 in /  1007.7 hPa NNW 12.7 mph /  20.4 km/h 12.7 mph /  20.4 km/h 97 % 0.03 in /  0.76 mm 19.0 W/m2 -DZ
13:46 38.7 °F /  3.7 °C 37.9 °F /  3.3 °C 29.77 in /  1008 hPa NW 12.7 mph /  20.4 km/h 12.7 mph /  20.4 km/h 97 % 0.04 in /  1.02 mm 18.0 W/m2 -RA
13:51 38.6 °F /  3.7 °C 37.6 °F /  3.1 °C 29.77 in /  1008 hPa NW 11.5 mph /  18.5 km/h 11.5 mph /  18.5 km/h 96 % 0.04 in /  1.02 mm 16.0 W/m2 -RA
13:56 38.6 °F /  3.7 °C 37.6 °F /  3.1 °C 29.77 in /  1008 hPa NW 11.5 mph /  18.5 km/h 11.5 mph /  18.5 km/h 96 % 0.05 in /  1.27 mm 12.0 W/m2 -RA
14:01 38.4 °F /  3.6 °C 37.6 °F /  3.1 °C 29.77 in /  1008 hPa NW 11.5 mph /  18.5 km/h 11.5 mph /  18.5 km/h 97 % 0.06 in /  1.52 mm 16.0 W/m2 -RA
14:06 38.3 °F /  3.5 °C 37.5 °F /  3.1 °C 29.77 in /  1008 hPa WNW 11.5 mph /  18.5 km/h 11.5 mph /  18.5 km/h 97 % 0.07 in /  1.78 mm 21.0 W/m2 -RA
14:11 38.3 °F /  3.5 °C 37.5 °F /  3.1 °C 29.77 in /  1008 hPa NW 11.5 mph /  18.5 km/h 11.5 mph /  18.5 km/h 97 % 0.07 in /  1.78 mm 37.0 W/m2 -RA
14:16 38.3 °F /  3.5 °C 37.5 °F /  3.1 °C 29.77 in /  1008 hPa NW 12.7 mph /  20.4 km/h 12.7 mph /  20.4 km/h 97 % 0.07 in /  1.78 mm 53.0 W/m2 OVC
14:21 38.4 °F /  3.6 °C 37.6 °F /  3.1 °C 29.77 in /  1008 hPa NW 11.5 mph /  18.5 km/h 11.5 mph /  18.5 km/h 97 % 0.07 in /  1.78 mm 79.0 W/m2 OVC
14:26 38.5 °F /  3.6 °C 37.7 °F /  3.2 °C 29.77 in /  1008 hPa WNW 12.0 mph /  19.3 km/h 12.0 mph /  19.3 km/h 97 % 0.07 in /  1.78 mm 44.0 W/m2 OVC
14:31 38.5 °F /  3.6 °C 37.7 °F /  3.2 °C 29.77 in /  1008 hPa NW 15.0 mph /  24.1 km/h 15.0 mph /  24.1 km/h 97 % 0.07 in /  1.78 mm 28.0 W/m2 OVC
14:36 38.3 °F /  3.5 °C 37.5 °F /  3.1 °C 29.77 in /  1008 hPa NW 14.0 mph /  22.5 km/h 14.0 mph /  22.5 km/h 97 % 0.06 in /  1.52 mm 37.0 W/m2 OVC
14:41 38.2 °F /  3.4 °C 37.4 °F /  3 °C 29.78 in /  1008.4 hPa NW 12.7 mph /  20.4 km/h 12.7 mph /  20.4 km/h 97 % 0.05 in /  1.27 mm 23.0 W/m2 OVC
14:46 38.1 °F /  3.4 °C 37.1 °F /  2.8 °C 29.78 in /  1008.4 hPa NNW 15.0 mph /  24.1 km/h 15.0 mph /  24.1 km/h 96 % 0.04 in /  1.02 mm 23.0 W/m2 OVC
14:51 38.0 °F /  3.3 °C 37.0 °F /  2.8 °C 29.78 in /  1008.4 hPa NW 12.7 mph /  20.4 km/h 12.7 mph /  20.4 km/h 96 % 0.04 in /  1.02 mm 26.0 W/m2 -RA
14:56 38.0 °F /  3.3 °C 37.0 °F /  2.8 °C 29.78 in /  1008.4 hPa NW 12.7 mph /  20.4 km/h 12.7 mph /  20.4 km/h 96 % 0.02 in /  0.51 mm 33.0 W/m2 -RA
15:01 38.0 °F /  3.3 °C 37.0 °F /  2.8 °C 29.78 in /  1008.4 hPa WNW 13.0 mph /  20.9 km/h 13.0 mph /  20.9 km/h 96 % 0.01 in /  0.25 mm 23.0 W/m2 -RA
15:06 37.9 °F /  3.3 °C 36.9 °F /  2.7 °C 29.78 in /  1008.4 hPa NW 12.7 mph /  20.4 km/h 12.7 mph /  20.4 km/h 96 % 0.00 in /  0 mm 26.0 W/m2 -RA
15:11 37.8 °F /  3.2 °C 36.8 °F /  2.7 °C 29.78 in /  1008.4 hPa NW 12.7 mph /  20.4 km/h 12.7 mph /  20.4 km/h 96 % 0.00 in /  0 mm 28.0 W/m2 -RA
15:16 37.8 °F /  3.2 °C 36.8 °F /  2.7 °C 29.79 in /  1008.7 hPa NW 11.5 mph /  18.5 km/h 11.5 mph /  18.5 km/h 96 % 0.00 in /  0 mm 25.0 W/m2 -RA
15:21 37.7 °F /  3.2 °C 36.7 °F /  2.6 °C 29.78 in /  1008.4 hPa NW 15.0 mph /  24.1 km/h 15.0 mph /  24.1 km/h 96 % 0.00 in /  0 mm 25.0 W/m2 -RA
15:26 37.8 °F /  3.2 °C 36.8 °F /  2.7 °C 29.79 in /  1008.7 hPa NW 12.7 mph /  20.4 km/h 12.7 mph /  20.4 km/h 96 % 0.01 in /  0.25 mm 25.0 W/m2 -RA
15:31 37.7 °F /  3.2 °C 36.7 °F /  2.6 °C 29.79 in /  1008.7 hPa NW 10.4 mph /  16.7 km/h 10.4 mph /  16.7 km/h 96 % 0.01 in /  0.25 mm 14.0 W/m2 RA
15:36 37.7 °F /  3.2 °C 36.7 °F /  2.6 °C 29.79 in /  1008.7 hPa NW 11.5 mph /  18.5 km/h 11.5 mph /  18.5 km/h 96 % 0.01 in /  0.25 mm 7.0 W/m2 OVC
15:41 37.6 °F /  3.1 °C 36.6 °F /  2.6 °C 29.80 in /  1009 hPa WNW 11.5 mph /  18.5 km/h 11.5 mph /  18.5 km/h 96 % 0.01 in /  0.25 mm 5.0 W/m2 OVC
15:46 37.5 °F /  3.1 °C 36.5 °F /  2.5 °C 29.80 in /  1009 hPa WNW 9.2 mph /  14.8 km/h 9.2 mph /  14.8 km/h 96 % 0.01 in /  0.25 mm 5.0 W/m2 OVC
15:51 37.4 °F /  3 °C 36.4 °F /  2.4 °C 29.80 in /  1009 hPa NW 10.0 mph /  16.1 km/h 10.0 mph /  16.1 km/h 96 % 0.01 in /  0.25 mm 0.0 W/m2 -DZ
15:56 37.4 °F /  3 °C 36.4 °F /  2.4 °C 29.80 in /  1009 hPa NW 11.5 mph /  18.5 km/h 11.5 mph /  18.5 km/h 96 % 0.01 in /  0.25 mm 0.0 W/m2 -DZ
16:01 37.3 °F /  2.9 °C 36.3 °F /  2.4 °C 29.81 in /  1009.4 hPa WNW 11.5 mph /  18.5 km/h 11.5 mph /  18.5 km/h 96 % 0.01 in /  0.25 mm 0.0 W/m2 OVC
16:02 37.3 °F /  2.9 °C 36.3 °F /  2.4 °C 29.81 in /  1009.4 hPa NW 10.4 mph /  16.7 km/h 10.4 mph /  16.7 km/h 96 % 0.01 in /  0.25 mm 0.0 W/m2 OVC
16:07 37.3 °F /  2.9 °C 36.3 °F /  2.4 °C 29.81 in /  1009.4 hPa WSW 12.7 mph /  20.4 km/h 12.7 mph /  20.4 km/h 96 % 0.01 in /  0.25 mm 0.0 W/m2 OVC
16:12 37.2 °F /  2.9 °C 36.2 °F /  2.3 °C 29.81 in /  1009.4 hPa NW 9.2 mph /  14.8 km/h 9.2 mph /  14.8 km/h 96 % 0.01 in /  0.25 mm 0.0 W/m2 OVC
16:17 37.2 °F /  2.9 °C 36.2 °F /  2.3 °C 29.82 in /  1009.7 hPa NW 13.8 mph /  22.2 km/h 13.8 mph /  22.2 km/h 96 % 0.01 in /  0.25 mm 0.0 W/m2 OVC
16:22 37.1 °F /  2.8 °C 36.1 °F /  2.3 °C 29.82 in /  1009.7 hPa WNW 10.4 mph /  16.7 km/h 10.4 mph /  16.7 km/h 96 % 0.01 in /  0.25 mm 0.0 W/m2 OVC
16:27 37.0 °F /  2.8 °C 36.0 °F /  2.2 °C 29.82 in /  1009.7 hPa WNW 11.5 mph /  18.5 km/h 11.5 mph /  18.5 km/h 96 % 0.00 in /  0 mm 0.0 W/m2 OVC
16:32 37.0 °F /  2.8 °C 35.7 °F /  2.1 °C 29.82 in /  1009.7 hPa WNW 11.5 mph /  18.5 km/h 11.5 mph /  18.5 km/h 95 % 0.00 in /  0 mm 0.0 W/m2 OVC
16:37 36.9 °F /  2.7 °C 35.6 °F /  2 °C 29.82 in /  1009.7 hPa NW 13.8 mph /  22.2 km/h 13.8 mph /  22.2 km/h 95 % 0.00 in /  0 mm 0.0 W/m2 OVC
16:42 36.9 °F /  2.7 °C 35.6 °F /  2 °C 29.83 in /  1010 hPa NW 12.7 mph /  20.4 km/h 12.7 mph /  20.4 km/h 95 % 0.00 in /  0 mm 0.0 W/m2 OVC
16:47 36.9 °F /  2.7 °C 35.6 °F /  2 °C 29.83 in /  1010 hPa NW 13.8 mph /  22.2 km/h 13.8 mph /  22.2 km/h 95 % 0.00 in /  0 mm 0.0 W/m2 OVC
16:52 36.8 °F /  2.7 °C 35.5 °F /  1.9 °C 29.83 in /  1010 hPa NW 15.0 mph /  24.1 km/h 15.0 mph /  24.1 km/h 95 % 0.00 in /  0 mm 0.0 W/m2 OVC
16:57 36.7 °F /  2.6 °C 35.4 °F /  1.9 °C 29.83 in /  1010 hPa WNW 18.4 mph /  29.6 km/h 18.4 mph /  29.6 km/h 95 % 0.00 in /  0 mm 0.0 W/m2 OVC
17:02 36.6 °F /  2.6 °C 35.3 °F /  1.8 °C 29.84 in /  1010.4 hPa NW 16.1 mph /  25.9 km/h 16.1 mph /  25.9 km/h 95 % 0.00 in /  0 mm 0.0 W/m2 OVC
17:07 36.5 °F /  2.5 °C 35.2 °F /  1.8 °C 29.84 in /  1010.4 hPa NW 13.0 mph /  20.9 km/h 13.0 mph /  20.9 km/h 95 % 0.00 in /  0 mm 0.0 W/m2 OVC
17:12 36.3 °F /  2.4 °C 35.0 °F /  1.7 °C 29.84 in /  1010.4 hPa West 19.6 mph /  31.5 km/h 19.6 mph /  31.5 km/h 95 % 0.00 in /  0 mm 0.0 W/m2 OVC
17:17 36.1 °F /  2.3 °C 34.8 °F /  1.6 °C 29.84 in /  1010.4 hPa NW 18.4 mph /  29.6 km/h 18.4 mph /  29.6 km/h 95 % 0.00 in /  0 mm 0.0 W/m2 OVC
17:22 36.0 °F /  2.2 °C 34.7 °F /  1.5 °C 29.85 in /  1010.7 hPa WNW 17.3 mph /  27.8 km/h 17.3 mph /  27.8 km/h 95 % 0.00 in /  0 mm 0.0 W/m2 OVC
17:27 35.8 °F /  2.1 °C 34.5 °F /  1.4 °C 29.85 in /  1010.7 hPa WNW 19.6 mph /  31.5 km/h 19.6 mph /  31.5 km/h 95 % 0.00 in /  0 mm 0.0 W/m2 OVC
17:32 35.7 °F /  2.1 °C 34.4 °F /  1.3 °C 29.85 in /  1010.7 hPa WNW 20.7 mph /  33.3 km/h 20.7 mph /  33.3 km/h 95 % 0.00 in /  0 mm 0.0 W/m2 OVC
17:37 35.7 °F /  2.1 °C 34.4 °F /  1.3 °C 29.85 in /  1010.7 hPa WNW 24.2 mph /  38.9 km/h 24.2 mph /  38.9 km/h 95 % 0.00 in /  0 mm 0.0 W/m2 OVC
17:42 35.6 °F /  2 °C 34.3 °F /  1.3 °C 29.85 in /  1010.7 hPa NW 15.0 mph /  24.1 km/h 15.0 mph /  24.1 km/h 95 % 0.00 in /  0 mm 0.0 W/m2 OVC
17:47 35.5 °F /  1.9 °C 34.2 °F /  1.2 °C 29.86 in /  1011.1 hPa NW 17.3 mph /  27.8 km/h 17.3 mph /  27.8 km/h 95 % 0.00 in /  0 mm 0.0 W/m2 OVC
17:52 35.4 °F /  1.9 °C 34.1 °F /  1.2 °C 29.85 in /  1010.7 hPa WNW 16.1 mph /  25.9 km/h 16.1 mph /  25.9 km/h 95 % 0.00 in /  0 mm 0.0 W/m2 OVC
17:57 35.3 °F /  1.8 °C 34.0 °F /  1.1 °C 29.86 in /  1011.1 hPa WNW 19.6 mph /  31.5 km/h 19.6 mph /  31.5 km/h 95 % 0.00 in /  0 mm 0.0 W/m2 OVC
18:02 35.2 °F /  1.8 °C 33.9 °F /  1.1 °C 29.86 in /  1011.1 hPa NW 19.6 mph /  31.5 km/h 19.6 mph /  31.5 km/h 95 % 0.00 in /  0 mm 0.0 W/m2 OVC
18:07 35.1 °F /  1.7 °C 33.8 °F /  1 °C 29.86 in /  1011.1 hPa NW 18.4 mph /  29.6 km/h 18.4 mph /  29.6 km/h 95 % 0.00 in /  0 mm 0.0 W/m2 OVC
18:12 35.0 °F /  1.7 °C 33.7 °F /  0.9 °C 29.86 in /  1011.1 hPa NW 19.6 mph /  31.5 km/h 19.6 mph /  31.5 km/h 95 % 0.00 in /  0 mm 0.0 W/m2 OVC
18:17 34.8 °F /  1.6 °C 33.5 °F /  0.8 °C 29.86 in /  1011.1 hPa NW 15.0 mph /  24.1 km/h 15.0 mph /  24.1 km/h 95 % 0.00 in /  0 mm 0.0 W/m2 OVC
18:22 34.7 °F /  1.5 °C 33.4 °F /  0.8 °C 29.87 in /  1011.4 hPa NW 19.6 mph /  31.5 km/h 19.6 mph /  31.5 km/h 95 % 0.00 in /  0 mm 0.0 W/m2 OVC
18:27 34.6 °F /  1.4 °C 33.3 °F /  0.7 °C 29.87 in /  1011.4 hPa NW 18.0 mph /  29 km/h 18.0 mph /  29 km/h 95 % 0.00 in /  0 mm 0.0 W/m2 OVC
18:32 34.5 °F /  1.4 °C 33.2 °F /  0.7 °C 29.87 in /  1011.4 hPa WNW 12.0 mph /  19.3 km/h 12.0 mph /  19.3 km/h 95 % 0.00 in /  0 mm 0.0 W/m2 -DZ
18:37 34.4 °F /  1.3 °C 33.1 °F /  0.6 °C 29.87 in /  1011.4 hPa NW 11.5 mph /  18.5 km/h 11.5 mph /  18.5 km/h 95 % 0.00 in /  0 mm 0.0 W/m2 -DZ
18:42 34.3 °F /  1.3 °C 33.0 °F /  0.6 °C 29.87 in /  1011.4 hPa WNW 13.8 mph /  22.2 km/h 13.8 mph /  22.2 km/h 95 % 0.00 in /  0 mm 0.0 W/m2 -DZ
18:47 34.3 °F /  1.3 °C 33.0 °F /  0.6 °C 29.87 in /  1011.4 hPa NW 11.5 mph /  18.5 km/h 11.5 mph /  18.5 km/h 95 % 0.00 in /  0 mm 0.0 W/m2 -DZ
18:52 34.2 °F /  1.2 °C 32.9 °F /  0.5 °C 29.87 in /  1011.4 hPa NW 11.5 mph /  18.5 km/h 11.5 mph /  18.5 km/h 95 % 0.00 in /  0 mm 0.0 W/m2 OVC
18:57 34.1 °F /  1.2 °C 32.8 °F /  0.4 °C 29.87 in /  1011.4 hPa WSW 11.5 mph /  18.5 km/h 11.5 mph /  18.5 km/h 95 % 0.00 in /  0 mm 0.0 W/m2 OVC
19:02 34.0 °F /  1.1 °C 32.7 °F /  0.4 °C 29.87 in /  1011.4 hPa WNW 17.3 mph /  27.8 km/h 17.3 mph /  27.8 km/h 95 % 0.00 in /  0 mm 0.0 W/m2 OVC
19:07 33.9 °F /  1.1 °C 32.6 °F /  0.3 °C 29.88 in /  1011.7 hPa WNW 11.5 mph /  18.5 km/h 11.5 mph /  18.5 km/h 95 % 0.00 in /  0 mm 0.0 W/m2 OVC
19:12 33.9 °F /  1.1 °C 32.6 °F /  0.3 °C 29.88 in /  1011.7 hPa NW 11.5 mph /  18.5 km/h 11.5 mph /  18.5 km/h 95 % 0.00 in /  0 mm 0.0 W/m2 OVC
19:17 33.8 °F /  1 °C 32.5 °F /  0.3 °C 29.88 in /  1011.7 hPa WNW 11.5 mph /  18.5 km/h 11.5 mph /  18.5 km/h 95 % 0.00 in /  0 mm 0.0 W/m2 OVC
19:22 33.6 °F /  0.9 °C 32.3 °F /  0.2 °C 29.88 in /  1011.7 hPa NW 18.4 mph /  29.6 km/h 18.4 mph /  29.6 km/h 95 % 0.00 in /  0 mm 0.0 W/m2 OVC
19:27 33.5 °F /  0.8 °C 32.0 °F /  0 °C 29.88 in /  1011.7 hPa West 15.0 mph /  24.1 km/h 15.0 mph /  24.1 km/h 94 % 0.00 in /  0 mm 0.0 W/m2 OVC
19:32 33.4 °F /  0.8 °C 31.9 °F /  -0.1 °C 29.88 in /  1011.7 hPa NW 13.8 mph /  22.2 km/h 13.8 mph /  22.2 km/h 94 % 0.00 in /  0 mm 0.0 W/m2 OVC
19:37 33.3 °F /  0.7 °C 31.8 °F /  -0.1 °C 29.88 in /  1011.7 hPa NW 19.6 mph /  31.5 km/h 19.6 mph /  31.5 km/h 94 % 0.00 in /  0 mm 0.0 W/m2 OVC
19:42 33.2 °F /  0.7 °C 31.7 °F /  -0.2 °C 29.89 in /  1012.1 hPa WNW 12.0 mph /  19.3 km/h 12.0 mph /  19.3 km/h 94 % 0.00 in /  0 mm 0.0 W/m2 OVC
19:47 32.9 °F /  0.5 °C 31.4 °F /  -0.3 °C 29.88 in /  1011.7 hPa NW 13.8 mph /  22.2 km/h 13.8 mph /  22.2 km/h 94 % 0.00 in /  0 mm 0.0 W/m2 OVC
19:52 32.8 °F /  0.4 °C 31.3 °F /  -0.4 °C 29.88 in /  1011.7 hPa NW 13.0 mph /  20.9 km/h 13.0 mph /  20.9 km/h 94 % 0.00 in /  0 mm 0.0 W/m2 OVC
19:57 32.7 °F /  0.4 °C 31.2 °F /  -0.4 °C 29.88 in /  1011.7 hPa WNW 13.8 mph /  22.2 km/h 13.8 mph /  22.2 km/h 94 % 0.00 in /  0 mm 0.0 W/m2 OVC
20:02 32.5 °F /  0.3 °C 31.0 °F /  -0.6 °C 29.88 in /  1011.7 hPa WNW 10.0 mph /  16.1 km/h 10.0 mph /  16.1 km/h 94 % 0.00 in /  0 mm 0.0 W/m2 OVC
20:07 32.3 °F /  0.2 °C 30.5 °F /  -0.8 °C 29.88 in /  1011.7 hPa WNW 16.1 mph /  25.9 km/h 16.1 mph /  25.9 km/h 93 % 0.00 in /  0 mm 0.0 W/m2 OVC
20:12 32.2 °F /  0.1 °C 30.4 °F /  -0.9 °C 29.89 in /  1012.1 hPa NW 18.4 mph /  29.6 km/h 18.4 mph /  29.6 km/h 93 % 0.00 in /  0 mm 0.0 W/m2 OVC
20:17 32.0 °F /  0 °C 30.2 °F /  -1 °C 29.90 in /  1012.4 hPa WNW 19.6 mph /  31.5 km/h 19.6 mph /  31.5 km/h 93 % 0.00 in /  0 mm 0.0 W/m2 OVC
20:22 31.9 °F /  -0.1 °C 29.8 °F /  -1.2 °C 29.90 in /  1012.4 hPa WNW 12.7 mph /  20.4 km/h 12.7 mph /  20.4 km/h 92 % 0.00 in /  0 mm 0.0 W/m2 OVC
20:27 31.7 °F /  -0.2 °C 29.6 °F /  -1.3 °C 29.90 in /  1012.4 hPa NW 17.3 mph /  27.8 km/h 17.3 mph /  27.8 km/h 92 % 0.00 in /  0 mm 0.0 W/m2 OVC
20:32 31.6 °F /  -0.2 °C 29.3 °F /  -1.5 °C 29.90 in /  1012.4 hPa West 12.7 mph /  20.4 km/h 12.7 mph /  20.4 km/h 91 % 0.00 in /  0 mm 0.0 W/m2 OVC
20:37 31.4 °F /  -0.3 °C 29.1 °F /  -1.6 °C 29.90 in /  1012.4 hPa WNW 11.5 mph /  18.5 km/h 11.5 mph /  18.5 km/h 91 % 0.00 in /  0 mm 0.0 W/m2 OVC
20:42 31.1 °F /  -0.5 °C 28.2 °F /  -2.1 °C 29.90 in /  1012.4 hPa NW 19.6 mph /  31.5 km/h 19.6 mph /  31.5 km/h 89 % 0.00 in /  0 mm 0.0 W/m2 OVC
20:47 31.0 °F /  -0.6 °C 28.1 °F /  -2.2 °C 29.90 in /  1012.4 hPa West 17.3 mph /  27.8 km/h 17.3 mph /  27.8 km/h 89 % 0.00 in /  0 mm 0.0 W/m2 OVC
20:52 30.4 °F /  -0.9 °C 27.5 °F /  -2.5 °C 29.90 in /  1012.4 hPa West 19.6 mph /  31.5 km/h 19.6 mph /  31.5 km/h 89 % 0.00 in /  0 mm 0.0 W/m2 OVC
20:57 29.8 °F /  -1.2 °C 27.0 °F /  -2.8 °C 29.90 in /  1012.4 hPa WNW 18.0 mph /  29 km/h 18.0 mph /  29 km/h 89 % 0.00 in /  0 mm 0.0 W/m2 OVC
21:02 29.3 °F /  -1.5 °C 26.5 °F /  -3.1 °C 29.90 in /  1012.4 hPa WNW 19.6 mph /  31.5 km/h 19.6 mph /  31.5 km/h 89 % 0.00 in /  0 mm 0.0 W/m2 OVC
21:07 29.0 °F /  -1.7 °C 26.2 °F /  -3.2 °C 29.90 in /  1012.4 hPa WSW 19.6 mph /  31.5 km/h 19.6 mph /  31.5 km/h 89 % 0.00 in /  0 mm 0.0 W/m2 OVC
21:12 28.7 °F /  -1.8 °C 25.9 °F /  -3.4 °C 29.90 in /  1012.4 hPa West 12.7 mph /  20.4 km/h 12.7 mph /  20.4 km/h 89 % 0.00 in /  0 mm 0.0 W/m2 OVC
21:17 28.3 °F /  -2.1 °C 25.5 °F /  -3.6 °C 29.90 in /  1012.4 hPa West 18.4 mph /  29.6 km/h 18.4 mph /  29.6 km/h 89 % 0.00 in /  0 mm 0.0 W/m2 OVC
21:22 28.3 °F /  -2.1 °C 25.7 °F /  -3.5 °C 29.90 in /  1012.4 hPa NW 11.5 mph /  18.5 km/h 11.5 mph /  18.5 km/h 90 % 0.00 in /  0 mm 0.0 W/m2 OVC
21:28 28.2 °F /  -2.1 °C 25.4 °F /  -3.7 °C 29.90 in /  1012.4 hPa NW 14.0 mph /  22.5 km/h 14.0 mph /  22.5 km/h 89 % 0.00 in /  0 mm 0.0 W/m2 OVC
21:33 28.0 °F /  -2.2 °C 24.9 °F /  -3.9 °C 29.90 in /  1012.4 hPa WNW 23.0 mph /  37 km/h 23.0 mph /  37 km/h 88 % 0.00 in /  0 mm 0.0 W/m2 OVC
21:38 27.8 °F /  -2.3 °C 24.7 °F /  -4.1 °C 29.90 in /  1012.4 hPa West 17.3 mph /  27.8 km/h 17.3 mph /  27.8 km/h 88 % 0.00 in /  0 mm 0.0 W/m2 OVC
21:43 27.5 °F /  -2.5 °C 24.1 °F /  -4.4 °C 29.90 in /  1012.4 hPa WNW 23.0 mph /  37 km/h 23.0 mph /  37 km/h 87 % 0.00 in /  0 mm 0.0 W/m2 OVC
21:48 27.2 °F /  -2.7 °C 23.8 °F /  -4.6 °C 29.90 in /  1012.4 hPa NW 18.4 mph /  29.6 km/h 18.4 mph /  29.6 km/h 87 % 0.00 in /  0 mm 0.0 W/m2 BKN
21:53 27.1 °F /  -2.7 °C 23.5 °F /  -4.7 °C 29.91 in /  1012.8 hPa NW 14.0 mph /  22.5 km/h 14.0 mph /  22.5 km/h 86 % 0.00 in /  0 mm 0.0 W/m2 BKN
21:57 26.9 °F /  -2.8 °C 23.5 °F /  -4.7 °C 29.92 in /  1013.1 hPa WNW 10.4 mph /  16.7 km/h 10.4 mph /  16.7 km/h 87 % 0.00 in /  0 mm 0.0 W/m2 BKN
22:02 26.8 °F /  -2.9 °C 23.4 °F /  -4.8 °C 29.92 in /  1013.1 hPa WNW 11.5 mph /  18.5 km/h 11.5 mph /  18.5 km/h 87 % 0.00 in /  0 mm 0.0 W/m2 BKN
22:07 26.6 °F /  -3 °C 23.3 °F /  -4.8 °C 29.92 in /  1013.1 hPa NW 12.7 mph /  20.4 km/h 12.7 mph /  20.4 km/h 87 % 0.00 in /  0 mm 0.0 W/m2 BKN
22:12 26.4 °F /  -3.1 °C 23.1 °F /  -4.9 °C 29.92 in /  1013.1 hPa NW 11.5 mph /  18.5 km/h 11.5 mph /  18.5 km/h 87 % 0.00 in /  0 mm 0.0 W/m2 BKN
22:17 26.2 °F /  -3.2 °C 22.9 °F /  -5.1 °C 29.93 in /  1013.4 hPa West 18.4 mph /  29.6 km/h 18.4 mph /  29.6 km/h 87 % 0.00 in /  0 mm 0.0 W/m2 BKN
22:22 25.9 °F /  -3.4 °C 22.3 °F /  -5.4 °C 29.93 in /  1013.4 hPa WNW 12.7 mph /  20.4 km/h 12.7 mph /  20.4 km/h 86 % 0.00 in /  0 mm 0.0 W/m2 BKN
22:27 25.8 °F /  -3.4 °C 22.2 °F /  -5.4 °C 29.94 in /  1013.8 hPa NW 15.0 mph /  24.1 km/h 15.0 mph /  24.1 km/h 86 % 0.00 in /  0 mm 0.0 W/m2 BKN
22:32 25.4 °F /  -3.7 °C 21.5 °F /  -5.8 °C 29.93 in /  1013.4 hPa WNW 11.5 mph /  18.5 km/h 11.5 mph /  18.5 km/h 85 % 0.00 in /  0 mm 0.0 W/m2 BKN
22:37 24.9 °F /  -3.9 °C 21.3 °F /  -5.9 °C 29.93 in /  1013.4 hPa WNW 11.5 mph /  18.5 km/h 11.5 mph /  18.5 km/h 86 % 0.00 in /  0 mm 0.0 W/m2 BKN
22:42 24.6 °F /  -4.1 °C 21.0 °F /  -6.1 °C 29.94 in /  1013.8 hPa WNW 18.4 mph /  29.6 km/h 18.4 mph /  29.6 km/h 86 % 0.00 in /  0 mm 0.0 W/m2 BKN
22:48 24.3 °F /  -4.3 °C 20.4 °F /  -6.4 °C 29.94 in /  1013.8 hPa West 19.6 mph /  31.5 km/h 19.6 mph /  31.5 km/h 85 % 0.00 in /  0 mm 0.0 W/m2 SCT
22:53 24.0 °F /  -4.4 °C 19.9 °F /  -6.7 °C 29.94 in /  1013.8 hPa West 18.4 mph /  29.6 km/h 18.4 mph /  29.6 km/h 84 % 0.00 in /  0 mm 0.0 W/m2 SCT
22:58 23.8 °F /  -4.6 °C 19.4 °F /  -7 °C 29.95 in /  1014.1 hPa WSW 18.4 mph /  29.6 km/h 18.4 mph /  29.6 km/h 83 % 0.00 in /  0 mm 0.0 W/m2 SCT
23:03 23.6 °F /  -4.7 °C 19.5 °F /  -6.9 °C 29.95 in /  1014.1 hPa NW 14.0 mph /  22.5 km/h 14.0 mph /  22.5 km/h 84 % 0.00 in /  0 mm 0.0 W/m2 SCT
23:08 23.3 °F /  -4.8 °C 19.2 °F /  -7.1 °C 29.95 in /  1014.1 hPa WSW 19.6 mph /  31.5 km/h 19.6 mph /  31.5 km/h 84 % 0.00 in /  0 mm 0.0 W/m2 SCT
23:13 23.1 °F /  -4.9 °C 19.0 °F /  -7.2 °C 29.95 in /  1014.1 hPa NW 15.0 mph /  24.1 km/h 15.0 mph /  24.1 km/h 84 % 0.00 in /  0 mm 0.0 W/m2 SCT
23:18 22.8 °F /  -5.1 °C 18.7 °F /  -7.4 °C 29.95 in /  1014.1 hPa NW 11.5 mph /  18.5 km/h 11.5 mph /  18.5 km/h 84 % 0.00 in /  0 mm 0.0 W/m2 SCT
23:23 22.5 °F /  -5.3 °C 18.4 °F /  -7.6 °C 29.95 in /  1014.1 hPa WNW 19.6 mph /  31.5 km/h 19.6 mph /  31.5 km/h 84 % 0.00 in /  0 mm 0.0 W/m2 SCT
23:28 22.3 °F /  -5.4 °C 18.5 °F /  -7.5 °C 29.95 in /  1014.1 hPa West 15.0 mph /  24.1 km/h 15.0 mph /  24.1 km/h 85 % 0.00 in /  0 mm 0.0 W/m2 SCT
23:33 22.1 °F /  -5.5 °C 18.0 °F /  -7.8 °C 29.95 in /  1014.1 hPa WNW 15.0 mph /  24.1 km/h 15.0 mph /  24.1 km/h 84 % 0.00 in /  0 mm 0.0 W/m2 SCT
23:38 22.0 °F /  -5.6 °C 17.3 °F /  -8.2 °C 29.95 in /  1014.1 hPa NW 19.6 mph /  31.5 km/h 19.6 mph /  31.5 km/h 82 % 0.00 in /  0 mm 0.0 W/m2 SCT
23:43 22.0 °F /  -5.6 °C 17.6 °F /  -8 °C 29.96 in /  1014.4 hPa WNW 11.5 mph /  18.5 km/h 11.5 mph /  18.5 km/h 83 % 0.00 in /  0 mm 0.0 W/m2 SCT
23:48 21.7 °F /  -5.7 °C 17.3 °F /  -8.2 °C 29.96 in /  1014.4 hPa NW 13.8 mph /  22.2 km/h 13.8 mph /  22.2 km/h 83 % 0.00 in /  0 mm 0.0 W/m2 CLR
23:53 21.3 °F /  -5.9 °C 16.9 °F /  -8.4 °C 29.96 in /  1014.4 hPa West 17.3 mph /  27.8 km/h 17.3 mph /  27.8 km/h 83 % 0.00 in /  0 mm 0.0 W/m2 CLR
23:58 21.2 °F /  -6 °C 16.8 °F /  -8.4 °C 29.96 in /  1014.4 hPa WSW 15.0 mph /  24.1 km/h 15.0 mph /  24.1 km/h 83 % 0.00 in /  0 mm 0.0 W/m2 CLR
Bourbonnais, Illinois, USA
Compliments of Weather Underground - 3.5 mb